Startpagina
METAR-TAF:

METAR-TAF

Vliegvelden :

Flughafen Saarbrücken

Saarbrücken, Duitsland

breedte: 49-13N, lengte: 007-07E, hoogte: 322 m

Actueel weer

Dit bericht is 30 minuten geleden gemaakt, om 20:50 UTC
Wind 12 kt uit het noordoosten
Temperatuur 18°C
Vochtigheid 32%
Druk 1001 hPa
Zicht 10 km of meer
geen wolken onder 1500 m en geen cumulonimbus

METAR: EDDR 222050Z 05012KT CAVOK 18/01 Q1001

Tijdstip: 23:20 (21:20 UTC)

Verwachting

Dit bericht is 4 uur en het 20 minuten geleden gemaakt, om 17:00 UTC
Verwachting geldig van 22 om 18 UTC tot 23 om 18 UTC
Wind 10 kt uit het oostnoordoosten
Zicht 10 km of meer
geen wolken onder 1500 m en geen cumulonimbus
Wijzigt naar
van 23 om 09 UTC tot 23 om 12 UTC
Wind 7 kt uit het oostzuidoosten

TAF: EDDR 221700Z 2218/2318 06010KT CAVOK BECMG 2309/2312 12007KT

Waarnemingen en weersverwachtingen van meer dan 4000 vliegvelden (METAR en TAF).

De beschikbare stations zijn de gele en rode punten op de kaart.

Ga met uw muis naar het station om de naam te zien.

Klik dan om waarnemingen en weersverwachtingen te zien.

kaart wijzigen: klik op de groene knoppen met een zwart kruis om in te zoomen, op de groene knop met een streepje om uit te zoomen of op de groene pijlen voor aangrenzende kaarten.


METAR-TAF: